sensor_id;sensor_type;location;lat;lon;timestamp;P1;durP1;ratioP1;P2;durP2;ratioP2
51475;SDS011;37554;50.362;7.568;2023-04-06T00:00:56;2.22;;;1.65;;
51475;SDS011;37554;50.362;7.568;2023-04-06T00:03:22;2.10;;;1.50;;
51475;SDS011;37554;50.362;7.568;2023-04-06T00:05:47;1.60;;;1.40;;
51475;SDS011;37554;50.362;7.568;2023-04-06T00:08:13;1.85;;;1.45;;
51475;SDS011;37554;50.362;7.568;2023-04-06T00:10:39;3.83;;;1.48;;
51475;SDS011;37554;50.362;7.568;2023-04-06T00:13:05;1.63;;;1.50;;
51475;SDS011;37554;50.362;7.568;2023-04-06T00:15:32;1.67;;;1.58;;
51475;SDS011;37554;50.362;7.568;2023-04-06T00:17:58;3.83;;;1.92;;
51475;SDS011;37554;50.362;7.568;2023-04-06T00:20:24;2.42;;;1.70;;
51475;SDS011;37554;50.362;7.568;2023-04-06T00:22:49;3.42;;;2.00;;
51475;SDS011;37554;50.362;7.568;2023-04-06T00:25:15;2.53;;;1.55;;
51475;SDS011;37554;50.362;7.568;2023-04-06T00:27:41;3.22;;;1.90;;
51475;SDS011;37554;50.362;7.568;2023-04-06T00:30:07;4.05;;;1.70;;
51475;SDS011;37554;50.362;7.568;2023-04-06T00:32:34;1.85;;;1.50;;
51475;SDS011;37554;50.362;7.568;2023-04-06T00:35:04;1.85;;;1.50;;
51475;SDS011;37554;50.362;7.568;2023-04-06T00:37:30;2.60;;;1.50;;
51475;SDS011;37554;50.362;7.568;2023-04-06T00:39:56;3.33;;;1.50;;
51475;SDS011;37554;50.362;7.568;2023-04-06T00:42:22;2.30;;;1.60;;
51475;SDS011;37554;50.362;7.568;2023-04-06T00:44:58;1.77;;;1.30;;
51475;SDS011;37554;50.362;7.568;2023-04-06T00:47:25;2.10;;;1.60;;
51475;SDS011;37554;50.362;7.568;2023-04-06T00:49:52;2.80;;;1.42;;
51475;SDS011;37554;50.362;7.568;2023-04-06T00:52:21;2.42;;;1.58;;
51475;SDS011;37554;50.362;7.568;2023-04-06T00:54:48;4.40;;;1.73;;
51475;SDS011;37554;50.362;7.568;2023-04-06T00:57:15;2.38;;;1.38;;
51475;SDS011;37554;50.362;7.568;2023-04-06T00:59:41;2.30;;;1.58;;
51475;SDS011;37554;50.362;7.568;2023-04-06T01:02:08;2.17;;;1.70;;
51475;SDS011;37554;50.362;7.568;2023-04-06T01:04:34;1.80;;;1.60;;
51475;SDS011;37554;50.362;7.568;2023-04-06T01:07:00;2.55;;;1.80;;
51475;SDS011;37554;50.362;7.568;2023-04-06T01:09:29;1.75;;;1.50;;
51475;SDS011;37554;50.362;7.568;2023-04-06T01:11:55;1.70;;;1.60;;
51475;SDS011;37554;50.362;7.568;2023-04-06T01:14:22;2.15;;;1.90;;
51475;SDS011;37554;50.362;7.568;2023-04-06T01:16:48;2.03;;;1.63;;
51475;SDS011;37554;50.362;7.568;2023-04-06T01:19:14;1.67;;;1.58;;
51475;SDS011;37554;50.362;7.568;2023-04-06T01:21:40;2.80;;;2.05;;
51475;SDS011;37554;50.362;7.568;2023-04-06T01:24:06;2.15;;;1.63;;
51475;SDS011;37554;50.362;7.568;2023-04-06T01:26:33;2.55;;;1.83;;
51475;SDS011;37554;50.362;7.568;2023-04-06T01:29:00;1.77;;;1.67;;
51475;SDS011;37554;50.362;7.568;2023-04-06T01:31:26;1.95;;;1.75;;
51475;SDS011;37554;50.362;7.568;2023-04-06T01:33:52;2.22;;;1.77;;
51475;SDS011;37554;50.362;7.568;2023-04-06T01:36:19;3.00;;;2.08;;
51475;SDS011;37554;50.362;7.568;2023-04-06T01:38:45;1.60;;;1.50;;
51475;SDS011;37554;50.362;7.568;2023-04-06T01:41:10;2.08;;;1.88;;
51475;SDS011;37554;50.362;7.568;2023-04-06T01:43:36;1.95;;;1.67;;
51475;SDS011;37554;50.362;7.568;2023-04-06T01:46:02;2.92;;;1.80;;
51475;SDS011;37554;50.362;7.568;2023-04-06T01:48:28;1.98;;;1.77;;
51475;SDS011;37554;50.362;7.568;2023-04-06T01:50:54;2.00;;;1.80;;
51475;SDS011;37554;50.362;7.568;2023-04-06T01:53:20;2.40;;;1.67;;
51475;SDS011;37554;50.362;7.568;2023-04-06T01:55:46;2.22;;;1.50;;
51475;SDS011;37554;50.362;7.568;2023-04-06T01:58:12;1.90;;;1.70;;
51475;SDS011;37554;50.362;7.568;2023-04-06T02:00:38;1.70;;;1.60;;
51475;SDS011;37554;50.362;7.568;2023-04-06T02:03:03;3.05;;;1.83;;
51475;SDS011;37554;50.362;7.568;2023-04-06T02:05:30;2.10;;;1.55;;
51475;SDS011;37554;50.362;7.568;2023-04-06T02:07:58;2.13;;;1.60;;
51475;SDS011;37554;50.362;7.568;2023-04-06T02:10:23;1.92;;;1.73;;
51475;SDS011;37554;50.362;7.568;2023-04-06T02:12:49;2.53;;;2.03;;
51475;SDS011;37554;50.362;7.568;2023-04-06T02:15:15;2.22;;;2.00;;
51475;SDS011;37554;50.362;7.568;2023-04-06T02:17:41;1.60;;;1.50;;
51475;SDS011;37554;50.362;7.568;2023-04-06T02:20:07;2.00;;;1.58;;
51475;SDS011;37554;50.362;7.568;2023-04-06T02:22:34;1.92;;;1.55;;
51475;SDS011;37554;50.362;7.568;2023-04-06T02:25:00;1.73;;;1.42;;
51475;SDS011;37554;50.362;7.568;2023-04-06T02:27:26;3.30;;;1.60;;
51475;SDS011;37554;50.362;7.568;2023-04-06T02:29:52;5.38;;;1.90;;
51475;SDS011;37554;50.362;7.568;2023-04-06T02:32:17;1.80;;;1.60;;
51475;SDS011;37554;50.362;7.568;2023-04-06T02:34:43;1.63;;;1.45;;
51475;SDS011;37554;50.362;7.568;2023-04-06T02:37:09;2.22;;;1.75;;
51475;SDS011;37554;50.362;7.568;2023-04-06T02:39:35;1.65;;;1.40;;
51475;SDS011;37554;50.362;7.568;2023-04-06T02:42:00;1.77;;;1.50;;
51475;SDS011;37554;50.362;7.568;2023-04-06T02:44:26;1.65;;;1.50;;
51475;SDS011;37554;50.362;7.568;2023-04-06T02:46:52;2.20;;;2.00;;
51475;SDS011;37554;50.362;7.568;2023-04-06T02:49:17;2.15;;;1.77;;
51475;SDS011;37554;50.362;7.568;2023-04-06T02:51:43;1.88;;;1.77;;
51475;SDS011;37554;50.362;7.568;2023-04-06T02:54:09;2.05;;;1.67;;
51475;SDS011;37554;50.362;7.568;2023-04-06T02:56:35;2.05;;;1.70;;
51475;SDS011;37554;50.362;7.568;2023-04-06T02:59:00;3.25;;;1.90;;
51475;SDS011;37554;50.362;7.568;2023-04-06T03:01:26;2.15;;;1.52;;
51475;SDS011;37554;50.362;7.568;2023-04-06T03:03:52;3.10;;;1.77;;
51475;SDS011;37554;50.362;7.568;2023-04-06T03:06:17;1.90;;;1.63;;
51475;SDS011;37554;50.362;7.568;2023-04-06T03:08:43;2.40;;;1.58;;
51475;SDS011;37554;50.362;7.568;2023-04-06T03:11:09;1.95;;;1.70;;
51475;SDS011;37554;50.362;7.568;2023-04-06T03:13:36;2.38;;;1.95;;
51475;SDS011;37554;50.362;7.568;2023-04-06T03:16:03;3.22;;;1.80;;
51475;SDS011;37554;50.362;7.568;2023-04-06T03:18:30;2.05;;;1.70;;
51475;SDS011;37554;50.362;7.568;2023-04-06T03:20:56;2.65;;;1.70;;
51475;SDS011;37554;50.362;7.568;2023-04-06T03:23:21;2.55;;;1.90;;
51475;SDS011;37554;50.362;7.568;2023-04-06T03:25:47;2.22;;;1.75;;
51475;SDS011;37554;50.362;7.568;2023-04-06T03:28:13;4.97;;;2.30;;
51475;SDS011;37554;50.362;7.568;2023-04-06T03:30:38;1.80;;;1.60;;
51475;SDS011;37554;50.362;7.568;2023-04-06T03:33:04;2.20;;;1.70;;
51475;SDS011;37554;50.362;7.568;2023-04-06T03:35:30;2.55;;;1.95;;
51475;SDS011;37554;50.362;7.568;2023-04-06T03:37:55;2.53;;;1.65;;
51475;SDS011;37554;50.362;7.568;2023-04-06T03:40:21;2.72;;;1.60;;
51475;SDS011;37554;50.362;7.568;2023-04-06T03:42:47;2.45;;;1.70;;
51475;SDS011;37554;50.362;7.568;2023-04-06T03:45:12;2.15;;;1.95;;
51475;SDS011;37554;50.362;7.568;2023-04-06T03:47:38;2.05;;;1.85;;
51475;SDS011;37554;50.362;7.568;2023-04-06T03:50:05;1.95;;;1.70;;
51475;SDS011;37554;50.362;7.568;2023-04-06T03:52:31;2.88;;;2.00;;
51475;SDS011;37554;50.362;7.568;2023-04-06T03:54:56;2.17;;;1.92;;
51475;SDS011;37554;50.362;7.568;2023-04-06T03:57:22;2.28;;;1.70;;
51475;SDS011;37554;50.362;7.568;2023-04-06T03:59:48;1.98;;;1.77;;
51475;SDS011;37554;50.362;7.568;2023-04-06T04:02:13;2.67;;;2.30;;
51475;SDS011;37554;50.362;7.568;2023-04-06T04:04:39;3.50;;;1.80;;
51475;SDS011;37554;50.362;7.568;2023-04-06T04:07:05;2.33;;;2.00;;
51475;SDS011;37554;50.362;7.568;2023-04-06T04:09:31;2.85;;;1.90;;
51475;SDS011;37554;50.362;7.568;2023-04-06T04:11:56;2.85;;;1.85;;
51475;SDS011;37554;50.362;7.568;2023-04-06T04:14:22;3.33;;;1.80;;
51475;SDS011;37554;50.362;7.568;2023-04-06T04:16:48;2.80;;;2.10;;
51475;SDS011;37554;50.362;7.568;2023-04-06T04:19:13;3.50;;;2.10;;
51475;SDS011;37554;50.362;7.568;2023-04-06T04:21:42;2.95;;;1.77;;
51475;SDS011;37554;50.362;7.568;2023-04-06T04:24:12;2.53;;;1.83;;
51475;SDS011;37554;50.362;7.568;2023-04-06T04:26:38;1.88;;;1.70;;
51475;SDS011;37554;50.362;7.568;2023-04-06T04:29:05;2.10;;;1.75;;
51475;SDS011;37554;50.362;7.568;2023-04-06T04:31:31;1.90;;;1.77;;
51475;SDS011;37554;50.362;7.568;2023-04-06T04:33:57;1.88;;;1.58;;
51475;SDS011;37554;50.362;7.568;2023-04-06T04:36:24;2.25;;;2.05;;
51475;SDS011;37554;50.362;7.568;2023-04-06T04:38:50;2.15;;;1.65;;
51475;SDS011;37554;50.362;7.568;2023-04-06T04:41:17;2.35;;;1.80;;
51475;SDS011;37554;50.362;7.568;2023-04-06T04:43:42;2.10;;;1.73;;
51475;SDS011;37554;50.362;7.568;2023-04-06T04:46:08;2.58;;;1.83;;
51475;SDS011;37554;50.362;7.568;2023-04-06T04:48:34;2.03;;;1.83;;
51475;SDS011;37554;50.362;7.568;2023-04-06T04:51:00;1.77;;;1.55;;
51475;SDS011;37554;50.362;7.568;2023-04-06T04:53:26;2.25;;;1.67;;
51475;SDS011;37554;50.362;7.568;2023-04-06T04:55:51;2.50;;;1.58;;
51475;SDS011;37554;50.362;7.568;2023-04-06T04:58:17;2.45;;;1.80;;
51475;SDS011;37554;50.362;7.568;2023-04-06T05:00:44;2.08;;;1.70;;
51475;SDS011;37554;50.362;7.568;2023-04-06T05:03:16;2.45;;;1.65;;
51475;SDS011;37554;50.362;7.568;2023-04-06T05:05:50;3.97;;;1.90;;
51475;SDS011;37554;50.362;7.568;2023-04-06T05:08:16;1.90;;;1.70;;
51475;SDS011;37554;50.362;7.568;2023-04-06T05:10:42;2.55;;;1.90;;
51475;SDS011;37554;50.362;7.568;2023-04-06T05:13:08;4.63;;;1.60;;
51475;SDS011;37554;50.362;7.568;2023-04-06T05:15:34;3.30;;;2.15;;
51475;SDS011;37554;50.362;7.568;2023-04-06T05:18:00;2.72;;;1.92;;
51475;SDS011;37554;50.362;7.568;2023-04-06T05:20:26;2.75;;;1.98;;
51475;SDS011;37554;50.362;7.568;2023-04-06T05:22:52;1.98;;;1.88;;
51475;SDS011;37554;50.362;7.568;2023-04-06T05:25:19;2.50;;;1.85;;
51475;SDS011;37554;50.362;7.568;2023-04-06T05:27:45;3.40;;;1.90;;
51475;SDS011;37554;50.362;7.568;2023-04-06T05:30:10;2.17;;;1.80;;
51475;SDS011;37554;50.362;7.568;2023-04-06T05:32:36;2.00;;;1.80;;
51475;SDS011;37554;50.362;7.568;2023-04-06T05:35:02;2.10;;;1.92;;
51475;SDS011;37554;50.362;7.568;2023-04-06T05:37:28;2.15;;;2.05;;
51475;SDS011;37554;50.362;7.568;2023-04-06T05:39:53;2.53;;;2.13;;
51475;SDS011;37554;50.362;7.568;2023-04-06T05:42:19;5.15;;;3.45;;
51475;SDS011;37554;50.362;7.568;2023-04-06T05:44:45;4.30;;;3.90;;
51475;SDS011;37554;50.362;7.568;2023-04-06T05:47:10;4.93;;;3.90;;
51475;SDS011;37554;50.362;7.568;2023-04-06T05:49:36;4.63;;;4.00;;
51475;SDS011;37554;50.362;7.568;2023-04-06T05:52:01;5.38;;;4.20;;
51475;SDS011;37554;50.362;7.568;2023-04-06T05:54:27;6.57;;;4.32;;
51475;SDS011;37554;50.362;7.568;2023-04-06T05:56:53;4.78;;;3.63;;
51475;SDS011;37554;50.362;7.568;2023-04-06T05:59:21;3.35;;;2.85;;
51475;SDS011;37554;50.362;7.568;2023-04-06T06:01:48;3.75;;;2.88;;
51475;SDS011;37554;50.362;7.568;2023-04-06T06:04:17;4.35;;;2.90;;
51475;SDS011;37554;50.362;7.568;2023-04-06T06:06:46;5.70;;;2.70;;
51475;SDS011;37554;50.362;7.568;2023-04-06T06:09:15;3.20;;;2.40;;
51475;SDS011;37554;50.362;7.568;2023-04-06T06:11:41;3.78;;;2.22;;
51475;SDS011;37554;50.362;7.568;2023-04-06T06:14:07;2.63;;;2.05;;
51475;SDS011;37554;50.362;7.568;2023-04-06T06:16:33;2.38;;;2.10;;
51475;SDS011;37554;50.362;7.568;2023-04-06T06:19:01;3.50;;;2.33;;
51475;SDS011;37554;50.362;7.568;2023-04-06T06:21:27;2.90;;;1.77;;
51475;SDS011;37554;50.362;7.568;2023-04-06T06:23:53;1.67;;;1.35;;
51475;SDS011;37554;50.362;7.568;2023-04-06T06:26:22;2.83;;;2.05;;
51475;SDS011;37554;50.362;7.568;2023-04-06T06:28:47;2.25;;;1.95;;
51475;SDS011;37554;50.362;7.568;2023-04-06T06:31:19;2.35;;;1.80;;
51475;SDS011;37554;50.362;7.568;2023-04-06T06:33:48;2.20;;;1.90;;
51475;SDS011;37554;50.362;7.568;2023-04-06T06:36:25;2.60;;;1.77;;
51475;SDS011;37554;50.362;7.568;2023-04-06T06:38:53;3.10;;;2.05;;
51475;SDS011;37554;50.362;7.568;2023-04-06T06:41:26;3.03;;;1.90;;
51475;SDS011;37554;50.362;7.568;2023-04-06T06:43:52;2.47;;;1.77;;
51475;SDS011;37554;50.362;7.568;2023-04-06T06:46:23;3.55;;;2.17;;
51475;SDS011;37554;50.362;7.568;2023-04-06T06:48:58;2.95;;;2.03;;
51475;SDS011;37554;50.362;7.568;2023-04-06T06:51:25;3.83;;;2.55;;
51475;SDS011;37554;50.362;7.568;2023-04-06T06:53:54;5.10;;;2.28;;
51475;SDS011;37554;50.362;7.568;2023-04-06T06:56:19;2.88;;;2.03;;
51475;SDS011;37554;50.362;7.568;2023-04-06T06:58:45;2.17;;;1.70;;
51475;SDS011;37554;50.362;7.568;2023-04-06T07:01:17;2.42;;;1.95;;
51475;SDS011;37554;50.362;7.568;2023-04-06T07:03:46;2.58;;;1.73;;
51475;SDS011;37554;50.362;7.568;2023-04-06T07:06:15;1.95;;;1.75;;
51475;SDS011;37554;50.362;7.568;2023-04-06T07:08:41;4.40;;;2.08;;
51475;SDS011;37554;50.362;7.568;2023-04-06T07:11:07;2.47;;;1.90;;
51475;SDS011;37554;50.362;7.568;2023-04-06T07:13:35;2.75;;;1.92;;
51475;SDS011;37554;50.362;7.568;2023-04-06T07:16:01;3.35;;;1.92;;
51475;SDS011;37554;50.362;7.568;2023-04-06T07:18:27;1.63;;;1.52;;
51475;SDS011;37554;50.362;7.568;2023-04-06T07:20:58;3.60;;;1.77;;
51475;SDS011;37554;50.362;7.568;2023-04-06T07:23:30;3.85;;;2.10;;
51475;SDS011;37554;50.362;7.568;2023-04-06T07:25:56;2.22;;;1.67;;
51475;SDS011;37554;50.362;7.568;2023-04-06T07:28:33;2.65;;;1.75;;
51475;SDS011;37554;50.362;7.568;2023-04-06T07:30:59;2.55;;;2.33;;
51475;SDS011;37554;50.362;7.568;2023-04-06T07:33:25;2.53;;;1.80;;
51475;SDS011;37554;50.362;7.568;2023-04-06T07:35:55;3.28;;;2.05;;
51475;SDS011;37554;50.362;7.568;2023-04-06T07:38:24;2.55;;;1.70;;
51475;SDS011;37554;50.362;7.568;2023-04-06T07:40:50;2.35;;;1.45;;
51475;SDS011;37554;50.362;7.568;2023-04-06T07:43:19;2.22;;;1.70;;
51475;SDS011;37554;50.362;7.568;2023-04-06T07:45:45;2.30;;;1.52;;
51475;SDS011;37554;50.362;7.568;2023-04-06T07:48:14;3.42;;;1.80;;
51475;SDS011;37554;50.362;7.568;2023-04-06T07:50:42;1.75;;;1.50;;
51475;SDS011;37554;50.362;7.568;2023-04-06T07:53:09;1.95;;;1.75;;
51475;SDS011;37554;50.362;7.568;2023-04-06T07:55:37;2.50;;;1.58;;
51475;SDS011;37554;50.362;7.568;2023-04-06T07:58:09;2.67;;;1.52;;
51475;SDS011;37554;50.362;7.568;2023-04-06T08:00:38;2.08;;;1.75;;
51475;SDS011;37554;50.362;7.568;2023-04-06T08:03:07;1.90;;;1.42;;
51475;SDS011;37554;50.362;7.568;2023-04-06T08:05:33;3.72;;;1.77;;
51475;SDS011;37554;50.362;7.568;2023-04-06T08:07:59;1.98;;;1.38;;
51475;SDS011;37554;50.362;7.568;2023-04-06T08:10:24;2.47;;;1.70;;
51475;SDS011;37554;50.362;7.568;2023-04-06T08:13:00;1.80;;;1.33;;
51475;SDS011;37554;50.362;7.568;2023-04-06T08:15:28;1.88;;;1.20;;
51475;SDS011;37554;50.362;7.568;2023-04-06T08:17:54;2.38;;;1.50;;
51475;SDS011;37554;50.362;7.568;2023-04-06T08:20:22;2.10;;;1.70;;
51475;SDS011;37554;50.362;7.568;2023-04-06T08:22:48;1.55;;;1.30;;
51475;SDS011;37554;50.362;7.568;2023-04-06T08:25:16;1.50;;;1.30;;
51475;SDS011;37554;50.362;7.568;2023-04-06T08:27:42;2.30;;;1.80;;
51475;SDS011;37554;50.362;7.568;2023-04-06T08:30:17;2.00;;;1.40;;
51475;SDS011;37554;50.362;7.568;2023-04-06T08:32:47;3.88;;;1.70;;
51475;SDS011;37554;50.362;7.568;2023-04-06T08:35:15;2.38;;;1.60;;
51475;SDS011;37554;50.362;7.568;2023-04-06T08:37:44;2.63;;;1.77;;
51475;SDS011;37554;50.362;7.568;2023-04-06T08:40:22;1.90;;;1.55;;
51475;SDS011;37554;50.362;7.568;2023-04-06T08:42:55;2.92;;;1.73;;
51475;SDS011;37554;50.362;7.568;2023-04-06T08:45:27;1.92;;;1.50;;
51475;SDS011;37554;50.362;7.568;2023-04-06T08:47:53;4.13;;;1.70;;
51475;SDS011;37554;50.362;7.568;2023-04-06T08:50:24;1.77;;;1.50;;
51475;SDS011;37554;50.362;7.568;2023-04-06T08:53:13;3.03;;;2.00;;
51475;SDS011;37554;50.362;7.568;2023-04-06T08:55:43;1.65;;;1.55;;
51475;SDS011;37554;50.362;7.568;2023-04-06T08:58:19;3.05;;;2.05;;
51475;SDS011;37554;50.362;7.568;2023-04-06T09:00:46;2.60;;;2.00;;
51475;SDS011;37554;50.362;7.568;2023-04-06T09:03:16;2.28;;;1.90;;
51475;SDS011;37554;50.362;7.568;2023-04-06T09:05:42;1.80;;;1.60;;
51475;SDS011;37554;50.362;7.568;2023-04-06T09:08:09;2.63;;;1.52;;
51475;SDS011;37554;50.362;7.568;2023-04-06T09:10:44;2.83;;;1.70;;
51475;SDS011;37554;50.362;7.568;2023-04-06T09:13:19;2.33;;;1.55;;
51475;SDS011;37554;50.362;7.568;2023-04-06T09:15:57;2.28;;;1.70;;
51475;SDS011;37554;50.362;7.568;2023-04-06T09:18:31;1.75;;;1.55;;
51475;SDS011;37554;50.362;7.568;2023-04-06T09:21:09;2.15;;;1.73;;
51475;SDS011;37554;50.362;7.568;2023-04-06T09:23:36;2.88;;;1.60;;
51475;SDS011;37554;50.362;7.568;2023-04-06T09:26:19;1.90;;;1.40;;
51475;SDS011;37554;50.362;7.568;2023-04-06T09:28:48;2.60;;;1.70;;
51475;SDS011;37554;50.362;7.568;2023-04-06T09:31:16;1.63;;;1.35;;
51475;SDS011;37554;50.362;7.568;2023-04-06T09:33:49;3.00;;;1.70;;
51475;SDS011;37554;50.362;7.568;2023-04-06T09:36:40;1.90;;;1.70;;
51475;SDS011;37554;50.362;7.568;2023-04-06T09:39:13;1.95;;;1.40;;
51475;SDS011;37554;50.362;7.568;2023-04-06T09:41:49;1.63;;;1.52;;
51475;SDS011;37554;50.362;7.568;2023-04-06T09:44:17;1.88;;;1.45;;
51475;SDS011;37554;50.362;7.568;2023-04-06T09:46:44;3.55;;;1.70;;
51475;SDS011;37554;50.362;7.568;2023-04-06T09:49:11;1.65;;;1.55;;
51475;SDS011;37554;50.362;7.568;2023-04-06T09:51:56;3.03;;;2.05;;
51475;SDS011;37554;50.362;7.568;2023-04-06T09:54:48;2.58;;;1.77;;
51475;SDS011;37554;50.362;7.568;2023-04-06T10:02:41;2.10;;;1.90;;
51475;SDS011;37554;50.362;7.568;2023-04-06T10:05:32;2.30;;;1.80;;
51475;SDS011;37554;50.362;7.568;2023-04-06T10:08:09;2.63;;;1.92;;
51475;SDS011;37554;50.362;7.568;2023-04-06T10:10:36;2.25;;;1.58;;
51475;SDS011;37554;50.362;7.568;2023-04-06T10:13:06;1.73;;;1.60;;
51475;SDS011;37554;50.362;7.568;2023-04-06T10:15:44;2.53;;;1.70;;
51475;SDS011;37554;50.362;7.568;2023-04-06T10:18:10;1.70;;;1.52;;
51475;SDS011;37554;50.362;7.568;2023-04-06T10:26:16;2.08;;;1.60;;
51475;SDS011;37554;50.362;7.568;2023-04-06T10:28:45;2.00;;;1.80;;
51475;SDS011;37554;50.362;7.568;2023-04-06T10:31:12;2.53;;;1.52;;
51475;SDS011;37554;50.362;7.568;2023-04-06T10:33:38;1.35;;;1.25;;
51475;SDS011;37554;50.362;7.568;2023-04-06T10:36:32;1.70;;;1.60;;
51475;SDS011;37554;50.362;7.568;2023-04-06T10:39:24;1.70;;;1.25;;
51475;SDS011;37554;50.362;7.568;2023-04-06T10:41:51;1.63;;;1.52;;
51475;SDS011;37554;50.362;7.568;2023-04-06T10:44:17;1.40;;;1.30;;
51475;SDS011;37554;50.362;7.568;2023-04-06T10:46:56;3.22;;;1.65;;
51475;SDS011;37554;50.362;7.568;2023-04-06T10:49:26;2.22;;;1.33;;
51475;SDS011;37554;50.362;7.568;2023-04-06T10:51:53;1.80;;;1.55;;
51475;SDS011;37554;50.362;7.568;2023-04-06T10:54:21;3.05;;;1.77;;
51475;SDS011;37554;50.362;7.568;2023-04-06T10:56:48;2.10;;;1.63;;
51475;SDS011;37554;50.362;7.568;2023-04-06T10:59:18;1.70;;;1.55;;
51475;SDS011;37554;50.362;7.568;2023-04-06T11:01:50;2.10;;;1.80;;
51475;SDS011;37554;50.362;7.568;2023-04-06T11:04:16;2.05;;;1.80;;
51475;SDS011;37554;50.362;7.568;2023-04-06T11:06:46;2.78;;;1.98;;
51475;SDS011;37554;50.362;7.568;2023-04-06T11:12:16;1.90;;;1.80;;
51475;SDS011;37554;50.362;7.568;2023-04-06T11:17:29;1.65;;;1.55;;
51475;SDS011;37554;50.362;7.568;2023-04-06T11:20:22;1.73;;;1.63;;
51475;SDS011;37554;50.362;7.568;2023-04-06T11:22:51;1.75;;;1.58;;
51475;SDS011;37554;50.362;7.568;2023-04-06T11:25:22;2.38;;;1.83;;
51475;SDS011;37554;50.362;7.568;2023-04-06T11:27:51;1.83;;;1.48;;
51475;SDS011;37554;50.362;7.568;2023-04-06T11:30:21;2.08;;;1.42;;
51475;SDS011;37554;50.362;7.568;2023-04-06T11:32:47;1.88;;;1.50;;
51475;SDS011;37554;50.362;7.568;2023-04-06T11:35:22;2.05;;;1.70;;
51475;SDS011;37554;50.362;7.568;2023-04-06T11:37:49;2.47;;;1.40;;
51475;SDS011;37554;50.362;7.568;2023-04-06T11:40:16;1.75;;;1.55;;
51475;SDS011;37554;50.362;7.568;2023-04-06T11:42:51;2.28;;;1.55;;
51475;SDS011;37554;50.362;7.568;2023-04-06T11:45:18;1.88;;;1.20;;
51475;SDS011;37554;50.362;7.568;2023-04-06T11:47:44;1.63;;;1.35;;
51475;SDS011;37554;50.362;7.568;2023-04-06T11:50:10;6.78;;;6.07;;
51475;SDS011;37554;50.362;7.568;2023-04-06T11:52:38;7.68;;;6.85;;
51475;SDS011;37554;50.362;7.568;2023-04-06T11:55:17;8.73;;;7.28;;
51475;SDS011;37554;50.362;7.568;2023-04-06T11:57:43;7.63;;;6.93;;
51475;SDS011;37554;50.362;7.568;2023-04-06T12:00:10;8.88;;;7.43;;
51475;SDS011;37554;50.362;7.568;2023-04-06T12:02:37;9.65;;;7.97;;
51475;SDS011;37554;50.362;7.568;2023-04-06T12:05:04;8.80;;;7.55;;
51475;SDS011;37554;50.362;7.568;2023-04-06T12:07:31;8.30;;;7.47;;
51475;SDS011;37554;50.362;7.568;2023-04-06T12:09:58;9.93;;;7.30;;
51475;SDS011;37554;50.362;7.568;2023-04-06T12:12:24;7.95;;;7.00;;
51475;SDS011;37554;50.362;7.568;2023-04-06T12:14:50;7.70;;;6.90;;
51475;SDS011;37554;50.362;7.568;2023-04-06T12:17:16;7.93;;;6.97;;
51475;SDS011;37554;50.362;7.568;2023-04-06T12:19:43;7.07;;;5.40;;
51475;SDS011;37554;50.362;7.568;2023-04-06T12:22:08;5.53;;;4.70;;
51475;SDS011;37554;50.362;7.568;2023-04-06T12:24:34;4.72;;;4.22;;
51475;SDS011;37554;50.362;7.568;2023-04-06T12:27:00;4.90;;;3.92;;
51475;SDS011;37554;50.362;7.568;2023-04-06T12:29:26;6.30;;;4.00;;
51475;SDS011;37554;50.362;7.568;2023-04-06T12:31:52;5.28;;;3.85;;
51475;SDS011;37554;50.362;7.568;2023-04-06T12:34:17;3.72;;;3.10;;
51475;SDS011;37554;50.362;7.568;2023-04-06T12:36:43;3.95;;;2.83;;
51475;SDS011;37554;50.362;7.568;2023-04-06T12:39:09;3.40;;;2.60;;
51475;SDS011;37554;50.362;7.568;2023-04-06T12:41:36;3.17;;;1.90;;
51475;SDS011;37554;50.362;7.568;2023-04-06T12:44:02;3.13;;;2.17;;
51475;SDS011;37554;50.362;7.568;2023-04-06T12:46:28;5.32;;;2.03;;
51475;SDS011;37554;50.362;7.568;2023-04-06T12:48:57;4.72;;;1.77;;
51475;SDS011;37554;50.362;7.568;2023-04-06T12:51:24;2.70;;;1.88;;
51475;SDS011;37554;50.362;7.568;2023-04-06T12:53:53;2.45;;;1.83;;
51475;SDS011;37554;50.362;7.568;2023-04-06T12:56:19;2.97;;;1.83;;
51475;SDS011;37554;50.362;7.568;2023-04-06T12:58:49;2.67;;;1.45;;
51475;SDS011;37554;50.362;7.568;2023-04-06T13:01:16;2.67;;;1.80;;
51475;SDS011;37554;50.362;7.568;2023-04-06T13:03:42;2.30;;;1.60;;
51475;SDS011;37554;50.362;7.568;2023-04-06T13:06:08;3.58;;;1.80;;
51475;SDS011;37554;50.362;7.568;2023-04-06T13:08:34;2.70;;;1.48;;
51475;SDS011;37554;50.362;7.568;2023-04-06T13:11:04;2.28;;;1.50;;
51475;SDS011;37554;50.362;7.568;2023-04-06T13:13:31;1.88;;;1.35;;
51475;SDS011;37554;50.362;7.568;2023-04-06T13:16:01;2.78;;;2.03;;
51475;SDS011;37554;50.362;7.568;2023-04-06T13:18:29;2.58;;;1.60;;
51475;SDS011;37554;50.362;7.568;2023-04-06T13:20:56;2.70;;;1.58;;
51475;SDS011;37554;50.362;7.568;2023-04-06T13:23:22;2.45;;;1.58;;
51475;SDS011;37554;50.362;7.568;2023-04-06T13:25:56;1.98;;;1.48;;
51475;SDS011;37554;50.362;7.568;2023-04-06T13:28:25;1.83;;;1.23;;
51475;SDS011;37554;50.362;7.568;2023-04-06T13:30:51;3.45;;;1.95;;
51475;SDS011;37554;50.362;7.568;2023-04-06T13:33:17;2.03;;;1.25;;
51475;SDS011;37554;50.362;7.568;2023-04-06T13:35:46;1.52;;;1.25;;
51475;SDS011;37554;50.362;7.568;2023-04-06T13:38:12;2.03;;;1.30;;
51475;SDS011;37554;50.362;7.568;2023-04-06T13:40:38;2.45;;;1.40;;
51475;SDS011;37554;50.362;7.568;2023-04-06T13:43:05;2.03;;;1.10;;
51475;SDS011;37554;50.362;7.568;2023-04-06T13:45:31;2.08;;;1.25;;
51475;SDS011;37554;50.362;7.568;2023-04-06T13:47:58;1.80;;;1.15;;
51475;SDS011;37554;50.362;7.568;2023-04-06T13:50:27;2.78;;;1.30;;
51475;SDS011;37554;50.362;7.568;2023-04-06T13:52:53;3.20;;;1.30;;
51475;SDS011;37554;50.362;7.568;2023-04-06T13:55:19;1.95;;;1.02;;
51475;SDS011;37554;50.362;7.568;2023-04-06T13:57:45;1.60;;;1.20;;
51475;SDS011;37554;50.362;7.568;2023-04-06T14:00:11;1.60;;;1.15;;
51475;SDS011;37554;50.362;7.568;2023-04-06T14:02:38;1.98;;;1.02;;
51475;SDS011;37554;50.362;7.568;2023-04-06T14:05:04;2.40;;;1.27;;
51475;SDS011;37554;50.362;7.568;2023-04-06T14:07:30;1.63;;;1.10;;
51475;SDS011;37554;50.362;7.568;2023-04-06T14:09:55;2.35;;;1.30;;
51475;SDS011;37554;50.362;7.568;2023-04-06T14:12:21;1.75;;;0.98;;
51475;SDS011;37554;50.362;7.568;2023-04-06T14:14:46;4.88;;;1.13;;
51475;SDS011;37554;50.362;7.568;2023-04-06T14:17:12;1.48;;;1.05;;
51475;SDS011;37554;50.362;7.568;2023-04-06T14:19:38;1.83;;;1.08;;
51475;SDS011;37554;50.362;7.568;2023-04-06T14:22:04;3.35;;;1.25;;
51475;SDS011;37554;50.362;7.568;2023-04-06T14:24:29;1.63;;;1.00;;
51475;SDS011;37554;50.362;7.568;2023-04-06T14:26:56;2.05;;;1.30;;
51475;SDS011;37554;50.362;7.568;2023-04-06T14:29:22;1.45;;;1.00;;
51475;SDS011;37554;50.362;7.568;2023-04-06T14:31:48;2.55;;;1.00;;
51475;SDS011;37554;50.362;7.568;2023-04-06T14:34:14;1.95;;;1.10;;
51475;SDS011;37554;50.362;7.568;2023-04-06T14:36:42;4.30;;;1.20;;
51475;SDS011;37554;50.362;7.568;2023-04-06T14:39:08;2.60;;;1.40;;
51475;SDS011;37554;50.362;7.568;2023-04-06T14:41:35;2.17;;;1.33;;
51475;SDS011;37554;50.362;7.568;2023-04-06T14:44:01;3.47;;;1.20;;
51475;SDS011;37554;50.362;7.568;2023-04-06T14:46:27;2.83;;;1.40;;
51475;SDS011;37554;50.362;7.568;2023-04-06T14:48:56;3.30;;;1.25;;
51475;SDS011;37554;50.362;7.568;2023-04-06T14:51:24;1.77;;;1.48;;
51475;SDS011;37554;50.362;7.568;2023-04-06T14:53:52;3.55;;;1.20;;
51475;SDS011;37554;50.362;7.568;2023-04-06T14:56:18;2.72;;;1.30;;
51475;SDS011;37554;50.362;7.568;2023-04-06T14:58:48;4.18;;;1.50;;
51475;SDS011;37554;50.362;7.568;2023-04-06T15:01:16;3.17;;;1.23;;
51475;SDS011;37554;50.362;7.568;2023-04-06T15:03:42;2.58;;;1.40;;
51475;SDS011;37554;50.362;7.568;2023-04-06T15:06:11;3.42;;;1.33;;
51475;SDS011;37554;50.362;7.568;2023-04-06T15:08:40;4.40;;;1.08;;